sensor_id;sensor_type;location;lat;lon;timestamp;pressure;altitude;pressure_sealevel;temperature;humidity
60437;BME280;46289;51.992;4.498;2024-01-16T00:00:50;101012.22;;;-0.66;100.00
60437;BME280;46289;51.992;4.498;2024-01-16T00:02:57;101012.28;;;-0.60;100.00
60437;BME280;46289;51.992;4.498;2024-01-16T00:05:02;101019.16;;;-0.62;100.00
60437;BME280;46289;51.992;4.498;2024-01-16T00:07:10;101012.28;;;-0.60;100.00
60437;BME280;46289;51.992;4.498;2024-01-16T00:09:15;101021.72;;;-0.62;100.00
60437;BME280;46289;51.992;4.498;2024-01-16T00:11:24;101033.06;;;-0.40;100.00
60437;BME280;46289;51.992;4.498;2024-01-16T00:13:29;101023.78;;;-0.18;100.00
60437;BME280;46289;51.992;4.498;2024-01-16T00:15:35;101023.03;;;0.00;100.00
60437;BME280;46289;51.992;4.498;2024-01-16T00:17:40;101017.94;;;0.14;100.00
60437;BME280;46289;51.992;4.498;2024-01-16T00:19:45;101012.81;;;0.25;100.00
60437;BME280;46289;51.992;4.498;2024-01-16T00:21:50;101007.66;;;0.34;100.00
60437;BME280;46289;51.992;4.498;2024-01-16T00:23:57;101021.47;;;0.34;100.00
60437;BME280;46289;51.992;4.498;2024-01-16T00:26:02;101018.03;;;0.32;100.00
60437;BME280;46289;51.992;4.498;2024-01-16T00:28:07;101015.44;;;0.32;100.00
60437;BME280;46289;51.992;4.498;2024-01-16T00:30:13;101018.84;;;0.25;100.00
60437;BME280;46289;51.992;4.498;2024-01-16T00:32:19;101020.56;;;0.21;100.00
60437;BME280;46289;51.992;4.498;2024-01-16T00:34:24;101029.16;;;0.19;100.00
60437;BME280;46289;51.992;4.498;2024-01-16T00:36:29;101023.97;;;0.16;100.00
60437;BME280;46289;51.992;4.498;2024-01-16T00:38:32;101020.50;;;0.15;100.00
60437;BME280;46289;51.992;4.498;2024-01-16T00:40:40;101030.88;;;0.20;100.00
60437;BME280;46289;51.992;4.498;2024-01-16T00:42:45;101026.56;;;0.17;100.00
60437;BME280;46289;51.992;4.498;2024-01-16T00:44:50;101018.00;;;0.25;100.00
60437;BME280;46289;51.992;4.498;2024-01-16T00:46:55;101029.16;;;0.20;100.00
60437;BME280;46289;51.992;4.498;2024-01-16T00:49:04;101017.94;;;0.20;100.00
60437;BME280;46289;51.992;4.498;2024-01-16T00:51:09;101013.66;;;0.22;100.00
60437;BME280;46289;51.992;4.498;2024-01-16T00:53:16;101019.72;;;0.24;100.00
60437;BME280;46289;51.992;4.498;2024-01-16T00:55:22;101029.16;;;0.16;100.00
60437;BME280;46289;51.992;4.498;2024-01-16T00:57:30;101021.41;;;0.16;100.00
60437;BME280;46289;51.992;4.498;2024-01-16T00:59:36;101018.78;;;0.13;100.00
60437;BME280;46289;51.992;4.498;2024-01-16T01:01:41;101030.75;;;-0.03;100.00
60437;BME280;46289;51.992;4.498;2024-01-16T01:03:46;101026.47;;;-0.03;100.00
60437;BME280;46289;51.992;4.498;2024-01-16T01:05:52;101030.75;;;-0.05;100.00
60437;BME280;46289;51.992;4.498;2024-01-16T01:07:57;101030.66;;;-0.17;100.00
60437;BME280;46289;51.992;4.498;2024-01-16T01:10:03;101025.47;;;-0.23;100.00
60437;BME280;46289;51.992;4.498;2024-01-16T01:12:09;101032.34;;;-0.25;100.00
60437;BME280;46289;51.992;4.498;2024-01-16T01:14:16;101033.13;;;-0.32;100.00
60437;BME280;46289;51.992;4.498;2024-01-16T01:16:22;101033.97;;;-0.35;100.00
60437;BME280;46289;51.992;4.498;2024-01-16T01:18:28;101037.38;;;-0.40;100.00
60437;BME280;46289;51.992;4.498;2024-01-16T01:20:33;101041.66;;;-0.46;100.00
60437;BME280;46289;51.992;4.498;2024-01-16T01:22:38;101043.34;;;-0.48;100.00
60437;BME280;46289;51.992;4.498;2024-01-16T01:24:43;101037.31;;;-0.50;100.00
60437;BME280;46289;51.992;4.498;2024-01-16T01:26:48;101042.47;;;-0.48;100.00
60437;BME280;46289;51.992;4.498;2024-01-16T01:28:53;101042.50;;;-0.47;100.00
60437;BME280;46289;51.992;4.498;2024-01-16T01:31:00;101055.47;;;-0.40;100.00
60437;BME280;46289;51.992;4.498;2024-01-16T01:33:06;101049.47;;;-0.35;100.00
60437;BME280;46289;51.992;4.498;2024-01-16T01:35:11;101054.69;;;-0.30;100.00
60437;BME280;46289;51.992;4.498;2024-01-16T01:37:16;101053.03;;;-0.20;100.00
60437;BME280;46289;51.992;4.498;2024-01-16T01:39:18;101060.00;;;-0.09;100.00
60437;BME280;46289;51.992;4.498;2024-01-16T01:41:24;101056.50;;;-0.17;100.00
60437;BME280;46289;51.992;4.498;2024-01-16T01:43:29;101056.47;;;-0.20;100.00
60437;BME280;46289;51.992;4.498;2024-01-16T01:45:34;101053.00;;;-0.22;100.00
60437;BME280;46289;51.992;4.498;2024-01-16T01:47:45;101056.50;;;-0.17;100.00
60437;BME280;46289;51.992;4.498;2024-01-16T01:49:51;101062.53;;;-0.15;100.00
60437;BME280;46289;51.992;4.498;2024-01-16T01:51:57;101055.59;;;-0.19;100.00
60437;BME280;46289;51.992;4.498;2024-01-16T01:54:02;101063.34;;;-0.24;100.00
60437;BME280;46289;51.992;4.498;2024-01-16T01:56:10;101058.97;;;-0.29;100.00
60437;BME280;46289;51.992;4.498;2024-01-16T01:58:15;101054.72;;;-0.23;100.00
60437;BME280;46289;51.992;4.498;2024-01-16T02:00:20;101048.69;;;-0.25;100.00
60437;BME280;46289;51.992;4.498;2024-01-16T02:02:26;101040.94;;;-0.26;100.00
60437;BME280;46289;51.992;4.498;2024-01-16T02:04:36;101042.69;;;-0.22;100.00
60437;BME280;46289;51.992;4.498;2024-01-16T02:06:41;101045.22;;;-0.27;100.00
60437;BME280;46289;51.992;4.498;2024-01-16T02:08:47;101053.81;;;-0.29;100.00
60437;BME280;46289;51.992;4.498;2024-01-16T02:10:52;101058.13;;;-0.28;100.00
60437;BME280;46289;51.992;4.498;2024-01-16T02:12:57;101056.41;;;-0.29;100.00
60437;BME280;46289;51.992;4.498;2024-01-16T02:15:04;101060.69;;;-0.30;100.00
60437;BME280;46289;51.992;4.498;2024-01-16T02:17:10;101071.91;;;-0.28;100.00
60437;BME280;46289;51.992;4.498;2024-01-16T02:19:15;101067.59;;;-0.30;100.00
60437;BME280;46289;51.992;4.498;2024-01-16T02:21:26;101066.72;;;-0.34;100.00
60437;BME280;46289;51.992;4.498;2024-01-16T02:23:33;101066.69;;;-0.37;100.00
60437;BME280;46289;51.992;4.498;2024-01-16T02:25:38;101065.78;;;-0.40;100.00
60437;BME280;46289;51.992;4.498;2024-01-16T02:27:44;101065.81;;;-0.36;100.00
60437;BME280;46289;51.992;4.498;2024-01-16T02:29:49;101056.31;;;-0.41;100.00
60437;BME280;46289;51.992;4.498;2024-01-16T02:31:54;101063.19;;;-0.43;100.00
60437;BME280;46289;51.992;4.498;2024-01-16T02:33:59;101062.31;;;-0.42;100.00
60437;BME280;46289;51.992;4.498;2024-01-16T02:36:06;101068.34;;;-0.43;100.00
60437;BME280;46289;51.992;4.498;2024-01-16T02:38:08;101066.66;;;-0.41;100.00
60437;BME280;46289;51.992;4.498;2024-01-16T02:40:16;101062.38;;;-0.39;100.00
60437;BME280;46289;51.992;4.498;2024-01-16T02:42:22;101058.06;;;-0.39;100.00
60437;BME280;46289;51.992;4.498;2024-01-16T02:44:27;101052.13;;;-0.29;100.00
60437;BME280;46289;51.992;4.498;2024-01-16T02:46:32;101036.59;;;-0.30;100.00
60437;BME280;46289;51.992;4.498;2024-01-16T02:48:38;101049.47;;;-0.35;100.00
60437;BME280;46289;51.992;4.498;2024-01-16T02:50:44;101029.72;;;-0.31;100.00
60437;BME280;46289;51.992;4.498;2024-01-16T02:52:50;101031.41;;;-0.36;100.00
60437;BME280;46289;51.992;4.498;2024-01-16T02:54:55;101035.66;;;-0.40;100.00
60437;BME280;46289;51.992;4.498;2024-01-16T02:57:06;101035.66;;;-0.41;100.00
60437;BME280;46289;51.992;4.498;2024-01-16T02:59:14;101049.47;;;-0.39;100.00
60437;BME280;46289;51.992;4.498;2024-01-16T03:01:19;101039.13;;;-0.38;100.00
60437;BME280;46289;51.992;4.498;2024-01-16T03:03:24;101041.72;;;-0.39;100.00
60437;BME280;46289;51.992;4.498;2024-01-16T03:05:29;101028.81;;;-0.35;100.00
60437;BME280;46289;51.992;4.498;2024-01-16T03:07:34;101033.19;;;-0.26;100.00
60437;BME280;46289;51.992;4.498;2024-01-16T03:09:39;101040.97;;;-0.20;100.00
60437;BME280;46289;51.992;4.498;2024-01-16T03:11:44;101035.84;;;-0.18;100.00
60437;BME280;46289;51.992;4.498;2024-01-16T03:13:52;101028.97;;;-0.15;100.00
60437;BME280;46289;51.992;4.498;2024-01-16T03:15:57;101021.19;;;-0.18;100.00
60437;BME280;46289;51.992;4.498;2024-01-16T03:18:03;101018.63;;;-0.15;100.00
60437;BME280;46289;51.992;4.498;2024-01-16T03:20:07;101021.19;;;-0.19;100.00
60437;BME280;46289;51.992;4.498;2024-01-16T03:22:12;101014.28;;;-0.22;100.00
60437;BME280;46289;51.992;4.498;2024-01-16T03:24:17;101017.72;;;-0.26;100.00
60437;BME280;46289;51.992;4.498;2024-01-16T03:26:23;101010.81;;;-0.26;100.00
60437;BME280;46289;51.992;4.498;2024-01-16T03:28:27;101006.50;;;-0.28;100.00
60437;BME280;46289;51.992;4.498;2024-01-16T03:30:35;101014.22;;;-0.27;100.00
60437;BME280;46289;51.992;4.498;2024-01-16T03:32:40;101010.78;;;-0.27;100.00
60437;BME280;46289;51.992;4.498;2024-01-16T03:34:45;101009.91;;;-0.29;100.00
60437;BME280;46289;51.992;4.498;2024-01-16T03:36:50;101007.34;;;-0.31;100.00
60437;BME280;46289;51.992;4.498;2024-01-16T03:38:56;101020.25;;;-0.29;100.00
60437;BME280;46289;51.992;4.498;2024-01-16T03:40:58;101015.00;;;-0.40;100.00
60437;BME280;46289;51.992;4.498;2024-01-16T03:43:04;101016.78;;;-0.36;100.00
60437;BME280;46289;51.992;4.498;2024-01-16T03:45:10;101011.53;;;-0.45;100.00
60437;BME280;46289;51.992;4.498;2024-01-16T03:47:21;101012.38;;;-0.46;100.00
60437;BME280;46289;51.992;4.498;2024-01-16T03:49:29;101023.53;;;-0.50;100.00
60437;BME280;46289;51.992;4.498;2024-01-16T03:51:32;101021.00;;;-0.46;100.00
60437;BME280;46289;51.992;4.498;2024-01-16T03:53:37;101014.22;;;-0.33;100.00
60437;BME280;46289;51.992;4.498;2024-01-16T03:55:42;101011.63;;;-0.33;100.00
60437;BME280;46289;51.992;4.498;2024-01-16T03:57:47;101019.38;;;-0.33;100.00
60437;BME280;46289;51.992;4.498;2024-01-16T03:59:53;101029.66;;;-0.39;100.00
60437;BME280;46289;51.992;4.498;2024-01-16T04:01:58;101027.91;;;-0.43;100.00
60437;BME280;46289;51.992;4.498;2024-01-16T04:04:03;101034.81;;;-0.42;100.00
60437;BME280;46289;51.992;4.498;2024-01-16T04:06:15;101037.41;;;-0.37;100.00
60437;BME280;46289;51.992;4.498;2024-01-16T04:08:21;101024.50;;;-0.39;100.00
60437;BME280;46289;51.992;4.498;2024-01-16T04:10:27;101028.78;;;-0.41;100.00
60437;BME280;46289;51.992;4.498;2024-01-16T04:12:32;101025.34;;;-0.38;100.00
60437;BME280;46289;51.992;4.498;2024-01-16T04:14:37;101019.31;;;-0.40;100.00
60437;BME280;46289;51.992;4.498;2024-01-16T04:16:42;101015.84;;;-0.42;100.00
60437;BME280;46289;51.992;4.498;2024-01-16T04:18:47;101012.38;;;-0.46;100.00
60437;BME280;46289;51.992;4.498;2024-01-16T04:20:56;101013.25;;;-0.46;100.00
60437;BME280;46289;51.992;4.498;2024-01-16T04:23:03;101007.22;;;-0.46;100.00
60437;BME280;46289;51.992;4.498;2024-01-16T04:25:09;101008.94;;;-0.45;100.00
60437;BME280;46289;51.992;4.498;2024-01-16T04:27:14;101006.38;;;-0.47;100.00
60437;BME280;46289;51.992;4.498;2024-01-16T04:29:19;101004.63;;;-0.49;100.00
60437;BME280;46289;51.992;4.498;2024-01-16T04:31:25;101001.19;;;-0.50;100.00
60437;BME280;46289;51.992;4.498;2024-01-16T04:33:30;100996.03;;;-0.50;100.00
60437;BME280;46289;51.992;4.498;2024-01-16T04:35:35;100995.19;;;-0.42;100.00
60437;BME280;46289;51.992;4.498;2024-01-16T04:37:43;100991.78;;;-0.41;100.00
60437;BME280;46289;51.992;4.498;2024-01-16T04:39:48;100990.91;;;-0.42;100.00
60437;BME280;46289;51.992;4.498;2024-01-16T04:41:53;100984.00;;;-0.46;100.00
60437;BME280;46289;51.992;4.498;2024-01-16T04:43:58;100985.75;;;-0.40;100.00
60437;BME280;46289;51.992;4.498;2024-01-16T04:46:04;100991.78;;;-0.40;100.00
60437;BME280;46289;51.992;4.498;2024-01-16T04:48:09;100992.63;;;-0.42;100.00
60437;BME280;46289;51.992;4.498;2024-01-16T04:50:14;100996.91;;;-0.43;100.00
60437;BME280;46289;51.992;4.498;2024-01-16T04:52:19;101004.69;;;-0.41;100.00
60437;BME280;46289;51.992;4.498;2024-01-16T04:54:27;100996.03;;;-0.45;100.00
60437;BME280;46289;51.992;4.498;2024-01-16T04:56:32;100998.66;;;-0.42;100.00
60437;BME280;46289;51.992;4.498;2024-01-16T04:58:37;100991.75;;;-0.45;100.00
60437;BME280;46289;51.992;4.498;2024-01-16T05:00:42;100992.59;;;-0.47;100.00
60437;BME280;46289;51.992;4.498;2024-01-16T05:02:48;100983.97;;;-0.48;100.00
60437;BME280;46289;51.992;4.498;2024-01-16T05:04:53;100980.53;;;-0.50;100.00
60437;BME280;46289;51.992;4.498;2024-01-16T05:06:59;100983.13;;;-0.47;100.00
60437;BME280;46289;51.992;4.498;2024-01-16T05:09:05;100979.75;;;-0.36;100.00
60437;BME280;46289;51.992;4.498;2024-01-16T05:11:13;100971.97;;;-0.42;100.00
60437;BME280;46289;51.992;4.498;2024-01-16T05:13:18;100971.97;;;-0.42;100.00
60437;BME280;46289;51.992;4.498;2024-01-16T05:15:23;100960.81;;;-0.41;100.00
60437;BME280;46289;51.992;4.498;2024-01-16T05:17:28;100957.38;;;-0.37;100.00
60437;BME280;46289;51.992;4.498;2024-01-16T05:19:34;100950.47;;;-0.41;100.00
60437;BME280;46289;51.992;4.498;2024-01-16T05:21:40;100956.47;;;-0.42;100.00
60437;BME280;46289;51.992;4.498;2024-01-16T05:23:45;100953.03;;;-0.45;100.00
60437;BME280;46289;51.992;4.498;2024-01-16T05:25:50;100954.72;;;-0.50;100.00
60437;BME280;46289;51.992;4.498;2024-01-16T05:27:58;100946.13;;;-0.46;100.00
60437;BME280;46289;51.992;4.498;2024-01-16T05:30:04;100944.41;;;-0.47;100.00
60437;BME280;46289;51.992;4.498;2024-01-16T05:32:10;100943.53;;;-0.49;100.00
60437;BME280;46289;51.992;4.498;2024-01-16T05:34:15;100947.81;;;-0.52;100.00
60437;BME280;46289;51.992;4.498;2024-01-16T05:36:22;100944.38;;;-0.54;100.00
60437;BME280;46289;51.992;4.498;2024-01-16T05:38:27;100938.31;;;-0.59;100.00
60437;BME280;46289;51.992;4.498;2024-01-16T05:40:33;100933.16;;;-0.59;100.00
60437;BME280;46289;51.992;4.498;2024-01-16T05:42:38;100933.13;;;-0.62;100.00
60437;BME280;46289;51.992;4.498;2024-01-16T05:44:45;100937.38;;;-0.66;100.00
60437;BME280;46289;51.992;4.498;2024-01-16T05:46:51;100933.94;;;-0.67;100.00
60437;BME280;46289;51.992;4.498;2024-01-16T05:48:53;100935.69;;;-0.64;100.00
60437;BME280;46289;51.992;4.498;2024-01-16T05:50:58;100928.81;;;-0.62;100.00
60437;BME280;46289;51.992;4.498;2024-01-16T05:53:04;100930.53;;;-0.64;100.00
60437;BME280;46289;51.992;4.498;2024-01-16T05:55:09;100924.50;;;-0.68;100.00
60437;BME280;46289;51.992;4.498;2024-01-16T05:57:14;100920.16;;;-0.70;100.00
60437;BME280;46289;51.992;4.498;2024-01-16T05:59:19;100926.16;;;-0.73;100.00
60437;BME280;46289;51.992;4.498;2024-01-16T06:01:27;100920.16;;;-0.70;100.00
60437;BME280;46289;51.992;4.498;2024-01-16T06:03:33;100921.88;;;-0.69;100.00
60437;BME280;46289;51.992;4.498;2024-01-16T06:05:38;100921.06;;;-0.68;100.00
60437;BME280;46289;51.992;4.498;2024-01-16T06:07:43;100920.16;;;-0.70;100.00
60437;BME280;46289;51.992;4.498;2024-01-16T06:09:48;100920.16;;;-0.72;100.00
60437;BME280;46289;51.992;4.498;2024-01-16T06:11:50;100917.56;;;-0.72;100.00
60437;BME280;46289;51.992;4.498;2024-01-16T06:13:58;100913.22;;;-0.77;100.00
60437;BME280;46289;51.992;4.498;2024-01-16T06:16:06;100916.69;;;-0.75;100.00
60437;BME280;46289;51.992;4.498;2024-01-16T06:18:16;100911.53;;;-0.75;100.00
60437;BME280;46289;51.992;4.498;2024-01-16T06:20:22;100921.84;;;-0.78;100.00
60437;BME280;46289;51.992;4.498;2024-01-16T06:22:30;100920.97;;;-0.77;100.00
60437;BME280;46289;51.992;4.498;2024-01-16T06:24:35;100919.25;;;-0.81;100.00
60437;BME280;46289;51.992;4.498;2024-01-16T06:26:41;100914.91;;;-0.85;100.00
60437;BME280;46289;51.992;4.498;2024-01-16T06:28:46;100917.50;;;-0.79;100.00
60437;BME280;46289;51.992;4.498;2024-01-16T06:30:51;100920.97;;;-0.77;100.00
60437;BME280;46289;51.992;4.498;2024-01-16T06:32:57;100920.94;;;-0.82;100.00
60437;BME280;46289;51.992;4.498;2024-01-16T06:35:08;100921.78;;;-0.84;100.00
60437;BME280;46289;51.992;4.498;2024-01-16T06:37:13;100925.22;;;-0.85;100.00
60437;BME280;46289;51.992;4.498;2024-01-16T06:39:19;100923.50;;;-0.83;100.00
60437;BME280;46289;51.992;4.498;2024-01-16T06:41:24;100928.69;;;-0.83;100.00
60437;BME280;46289;51.992;4.498;2024-01-16T06:43:29;100916.63;;;-0.83;100.00
60437;BME280;46289;51.992;4.498;2024-01-16T06:45:34;100915.72;;;-0.90;100.00
60437;BME280;46289;51.992;4.498;2024-01-16T06:47:39;100921.78;;;-0.84;100.00
60437;BME280;46289;51.992;4.498;2024-01-16T06:49:44;100919.19;;;-0.86;100.00
60437;BME280;46289;51.992;4.498;2024-01-16T06:51:53;100914.03;;;-0.84;100.00
60437;BME280;46289;51.992;4.498;2024-01-16T06:53:59;100917.44;;;-0.87;100.00
60437;BME280;46289;51.992;4.498;2024-01-16T06:56:06;100918.28;;;-0.90;100.00
60437;BME280;46289;51.992;4.498;2024-01-16T06:58:11;100915.72;;;-0.91;100.00
60437;BME280;46289;51.992;4.498;2024-01-16T07:00:16;100914.03;;;-0.86;100.00
60437;BME280;46289;51.992;4.498;2024-01-16T07:02:22;100918.34;;;-0.83;100.00
60437;BME280;46289;51.992;4.498;2024-01-16T07:04:28;100925.25;;;-0.84;100.00
60437;BME280;46289;51.992;4.498;2024-01-16T07:06:33;100918.34;;;-0.83;100.00
60437;BME280;46289;51.992;4.498;2024-01-16T07:08:41;100914.94;;;-0.79;100.00
60437;BME280;46289;51.992;4.498;2024-01-16T07:10:46;100920.13;;;-0.76;100.00
60437;BME280;46289;51.992;4.498;2024-01-16T07:12:51;100914.16;;;-0.71;100.00
60437;BME280;46289;51.992;4.498;2024-01-16T07:14:57;100916.75;;;-0.66;100.00
60437;BME280;46289;51.992;4.498;2024-01-16T07:17:02;100915.88;;;-0.70;100.00
60437;BME280;46289;51.992;4.498;2024-01-16T07:19:09;100925.34;;;-0.70;100.00
60437;BME280;46289;51.992;4.498;2024-01-16T07:21:18;100916.72;;;-0.69;100.00
60437;BME280;46289;51.992;4.498;2024-01-16T07:23:23;100919.31;;;-0.71;100.00
60437;BME280;46289;51.992;4.498;2024-01-16T07:25:31;100926.22;;;-0.65;100.00
60437;BME280;46289;51.992;4.498;2024-01-16T07:27:38;100932.28;;;-0.63;100.00
60437;BME280;46289;51.992;4.498;2024-01-16T07:29:44;100933.09;;;-0.64;100.00
60437;BME280;46289;51.992;4.498;2024-01-16T07:31:49;100933.13;;;-0.61;100.00
60437;BME280;46289;51.992;4.498;2024-01-16T07:33:52;100934.88;;;-0.60;100.00
60437;BME280;46289;51.992;4.498;2024-01-16T07:35:57;100941.75;;;-0.59;100.00
60437;BME280;46289;51.992;4.498;2024-01-16T07:38:00;100944.31;;;-0.59;100.00
60437;BME280;46289;51.992;4.498;2024-01-16T07:40:07;100938.34;;;-0.55;100.00
60437;BME280;46289;51.992;4.498;2024-01-16T07:42:16;100940.91;;;-0.53;100.00
60437;BME280;46289;51.992;4.498;2024-01-16T07:44:22;100941.78;;;-0.54;100.00
60437;BME280;46289;51.992;4.498;2024-01-16T07:46:27;100946.09;;;-0.52;100.00
60437;BME280;46289;51.992;4.498;2024-01-16T07:48:31;100945.25;;;-0.49;100.00
60437;BME280;46289;51.992;4.498;2024-01-16T07:50:37;100944.38;;;-0.48;100.00
60437;BME280;46289;51.992;4.498;2024-01-16T07:52:40;100944.41;;;-0.47;100.00
60437;BME280;46289;51.992;4.498;2024-01-16T07:54:45;100941.81;;;-0.45;100.00
60437;BME280;46289;51.992;4.498;2024-01-16T07:56:50;100947.03;;;-0.40;100.00
60437;BME280;46289;51.992;4.498;2024-01-16T07:58:58;100947.03;;;-0.39;100.00
60437;BME280;46289;51.992;4.498;2024-01-16T08:01:03;100943.59;;;-0.35;100.00
60437;BME280;46289;51.992;4.498;2024-01-16T08:03:09;100933.28;;;-0.32;100.00
60437;BME280;46289;51.992;4.498;2024-01-16T08:05:13;100937.59;;;-0.34;100.00
60437;BME280;46289;51.992;4.498;2024-01-16T08:07:19;100936.75;;;-0.33;100.00
60437;BME280;46289;51.992;4.498;2024-01-16T08:09:24;100942.78;;;-0.29;100.00
60437;BME280;46289;51.992;4.498;2024-01-16T08:11:32;100933.31;;;-0.30;100.00
60437;BME280;46289;51.992;4.498;2024-01-16T08:13:39;100933.31;;;-0.30;100.00
60437;BME280;46289;51.992;4.498;2024-01-16T08:15:44;100945.34;;;-0.29;100.00
60437;BME280;46289;51.992;4.498;2024-01-16T08:17:48;100935.91;;;-0.27;100.00
60437;BME280;46289;51.992;4.498;2024-01-16T08:19:54;100942.81;;;-0.26;100.00
60437;BME280;46289;51.992;4.498;2024-01-16T08:21:59;100945.38;;;-0.25;100.00
60437;BME280;46289;51.992;4.498;2024-01-16T08:24:08;100948.03;;;-0.17;100.00
60437;BME280;46289;51.992;4.498;2024-01-16T08:26:14;100941.97;;;-0.16;100.00
60437;BME280;46289;51.992;4.498;2024-01-16T08:28:21;100942.84;;;-0.17;100.00
60437;BME280;46289;51.992;4.498;2024-01-16T08:30:26;100942.88;;;-0.09;100.00
60437;BME280;46289;51.992;4.498;2024-01-16T08:32:34;100942.91;;;-0.05;100.00
60437;BME280;46289;51.992;4.498;2024-01-16T08:34:39;100945.50;;;-0.05;100.00
60437;BME280;46289;51.992;4.498;2024-01-16T08:36:45;100948.09;;;-0.05;100.00
60437;BME280;46289;51.992;4.498;2024-01-16T08:38:50;100948.94;;;-0.06;100.00
60437;BME280;46289;51.992;4.498;2024-01-16T08:40:52;100942.06;;;-0.05;100.00
60437;BME280;46289;51.992;4.498;2024-01-16T08:42:58;100939.47;;;-0.04;100.00
60437;BME280;46289;51.992;4.498;2024-01-16T08:45:04;100941.22;;;-0.03;100.00
60437;BME280;46289;51.992;4.498;2024-01-16T08:47:09;100944.66;;;-0.01;100.00
60437;BME280;46289;51.992;4.498;2024-01-16T08:49:17;100941.22;;;0.04;100.00
60437;BME280;46289;51.992;4.498;2024-01-16T08:51:22;100944.69;;;0.06;100.00
60437;BME280;46289;51.992;4.498;2024-01-16T08:53:28;100939.50;;;0.07;100.00
60437;BME280;46289;51.992;4.498;2024-01-16T08:55:35;100935.25;;;0.14;100.00
60437;BME280;46289;51.992;4.498;2024-01-16T08:57:40;100937.84;;;0.14;100.00
60437;BME280;46289;51.992;4.498;2024-01-16T08:59:45;100941.28;;;0.16;100.00
60437;BME280;46289;51.992;4.498;2024-01-16T09:01:50;100934.38;;;0.21;100.00
60437;BME280;46289;51.992;4.498;2024-01-16T09:03:59;100936.13;;;0.19;100.00
60437;BME280;46289;51.992;4.498;2024-01-16T09:06:08;100930.09;;;0.23;100.00
60437;BME280;46289;51.992;4.498;2024-01-16T09:08:15;100937.88;;;0.21;100.00
60437;BME280;46289;51.992;4.498;2024-01-16T09:10:20;100936.13;;;0.20;100.00
60437;BME280;46289;51.992;4.498;2024-01-16T09:12:23;100929.25;;;0.24;100.00
60437;BME280;46289;51.992;4.498;2024-01-16T09:14:28;100947.34;;;0.24;100.00
60437;BME280;46289;51.992;4.498;2024-01-16T09:16:33;100944.72;;;0.15;100.00
60437;BME280;46289;51.992;4.498;2024-01-16T09:18:36;100938.69;;;0.17;100.00
60437;BME280;46289;51.992;4.498;2024-01-16T09:20:41;100945.59;;;0.20;100.00
60437;BME280;46289;51.992;4.498;2024-01-16T09:22:49;100945.63;;;0.28;100.00
60437;BME280;46289;51.992;4.498;2024-01-16T09:24:55;100939.63;;;0.35;100.00
60437;BME280;46289;51.992;4.498;2024-01-16T09:26:58;100947.38;;;0.32;100.00
60437;BME280;46289;51.992;4.498;2024-01-16T09:29:03;100946.50;;;0.31;100.00
60437;BME280;46289;51.992;4.498;2024-01-16T09:31:08;100932.72;;;0.31;100.00
60437;BME280;46289;51.992;4.498;2024-01-16T09:33:17;100938.75;;;0.30;100.00
60437;BME280;46289;51.992;4.498;2024-01-16T09:35:25;100938.72;;;0.28;100.00
60437;BME280;46289;51.992;4.498;2024-01-16T09:37:30;100945.59;;;0.23;100.00
60437;BME280;46289;51.992;4.498;2024-01-16T09:39:37;100945.56;;;0.18;100.00
60437;BME280;46289;51.992;4.498;2024-01-16T09:41:44;100939.56;;;0.18;100.00
60437;BME280;46289;51.992;4.498;2024-01-16T09:43:52;100944.72;;;0.18;100.00
60437;BME280;46289;51.992;4.498;2024-01-16T09:46:00;100943.03;;;0.21;100.00
60437;BME280;46289;51.992;4.498;2024-01-16T09:48:07;100940.44;;;0.23;100.00
60437;BME280;46289;51.992;4.498;2024-01-16T09:50:14;100932.69;;;0.23;100.00
60437;BME280;46289;51.992;4.498;2024-01-16T09:52:20;100937.03;;;0.35;100.00
60437;BME280;46289;51.992;4.498;2024-01-16T09:54:26;100933.59;;;0.34;100.00
60437;BME280;46289;51.992;4.498;2024-01-16T09:56:35;100924.09;;;0.36;100.00
60437;BME280;46289;51.992;4.498;2024-01-16T09:58:44;100931.03;;;0.40;100.00
60437;BME280;46289;51.992;4.498;2024-01-16T10:00:50;100921.56;;;0.42;100.00
60437;BME280;46289;51.992;4.498;2024-01-16T10:02:56;100923.28;;;0.45;100.00
60437;BME280;46289;51.992;4.498;2024-01-16T10:05:01;100915.50;;;0.50;100.00
60437;BME280;46289;51.992;4.498;2024-01-16T10:07:08;100921.56;;;0.53;100.00
60437;BME280;46289;51.992;4.498;2024-01-16T10:09:15;100923.31;;;0.63;100.00
60437;BME280;46289;51.992;4.498;2024-01-16T10:11:20;100919.00;;;0.67;100.00
60437;BME280;46289;51.992;4.498;2024-01-16T10:13:26;100916.44;;;0.78;100.00
60437;BME280;46289;51.992;4.498;2024-01-16T10:15:32;100916.44;;;0.88;100.00
60437;BME280;46289;51.992;4.498;2024-01-16T10:17:38;100912.97;;;0.91;100.00
60437;BME280;46289;51.992;4.498;2024-01-16T10:19:49;100913.84;;;1.07;100.00
60437;BME280;46289;51.992;4.498;2024-01-16T10:22:01;100912.09;;;1.18;100.00
60437;BME280;46289;51.992;4.498;2024-01-16T10:24:13;100914.72;;;1.24;100.00
60437;BME280;46289;51.992;4.498;2024-01-16T10:26:21;100904.34;;;1.30;100.00
60437;BME280;46289;51.992;4.498;2024-01-16T10:28:29;100906.03;;;1.36;100.00
60437;BME280;46289;51.992;4.498;2024-01-16T10:30:36;100912.06;;;1.41;100.00
60437;BME280;46289;51.992;4.498;2024-01-16T10:32:42;100908.63;;;1.47;100.00
60437;BME280;46289;51.992;4.498;2024-01-16T10:34:49;100896.50;;;1.52;100.00
60437;BME280;46289;51.992;4.498;2024-01-16T10:36:58;100898.22;;;1.62;100.00
60437;BME280;46289;51.992;4.498;2024-01-16T10:39:04;100897.34;;;1.63;100.00
60437;BME280;46289;51.992;4.498;2024-01-16T10:41:09;100896.47;;;1.66;100.00
60437;BME280;46289;51.992;4.498;2024-01-16T10:43:17;100897.34;;;1.63;100.00
60437;BME280;46289;51.992;4.498;2024-01-16T10:45:24;100899.03;;;1.80;100.00
60437;BME280;46289;51.992;4.498;2024-01-16T10:47:31;100902.47;;;1.85;100.00
60437;BME280;46289;51.992;4.498;2024-01-16T10:49:39;100895.56;;;1.85;100.00
60437;BME280;46289;51.992;4.498;2024-01-16T10:51:47;100896.38;;;1.93;100.00